Bradford, New York
Current Conditions -  °F | °C
As of 11:53 PM on Saturday 20 Dec 2014 (Local Time) from KELM Reporting Station
Overcast Overcast  
Wind Chill: -2°   Ceiling: 2400
Heat Index: -2°   Visibility: 10mi
Dew Point: -7°   Wind: 3mph
Humidity: 72%   Direction: 340°NNW
Pressure: 30.25"   Gusts: NA
Location:  42.37°N, 77.11°W
Report Text: KELM 210453Z AUTO 34003KT 10SM OVC024 M02/M07 A3025 RMK AO2 SLP257 T10221067 410061022
Loading
Personal Weather Stations






























Interactive Weather Map New forecast layout! Learn more

10-Day Weather Forecast

Advertisements
Track Severe Weather on mobile